Time;durP1;ratioP1;P1;durP2;ratioP2;P2;SDS_P1;SDS_P2;PMS_P1;PMS_P2;Temp;Humidity;BMP_temperature;BMP_pressure;BME280_temperature;BME280_humidity;BME280_pressure;Samples;Min_cycle;Max_cycle;Signal;HPM_P1;HPM_P2
2023/10/02 00:03:34;;;;;;;;;;;;;;;;;;5115966;27;20452;-72
2023/10/02 00:06:01;;;;;;;4.88;2.13;;;;;;;;;;5130777;27;20260;-74
2023/10/02 00:08:40;;;;;;;6.50;2.45;;;;;;;;;;5130042;27;20054;-74
2023/10/02 00:11:36;;;;;;;6.05;2.33;;;;;;;;;;5130784;27;20043;-77
2023/10/02 00:14:34;;;;;;;5.90;2.60;;;;;;;;;;5108969;27;20050;-74
2023/10/02 00:17:06;;;;;;;5.30;2.22;;;;;;;;;;5130408;27;20452;-77
2023/10/02 00:19:44;;;;;;;6.43;2.50;;;;;;;;;;5130199;27;20082;-76
2023/10/02 00:25:09;;;;;;;;;;;;;;;;;;5130446;28;20043;-76
2023/10/02 00:27:37;;;;;;;6.13;2.22;;;;;;;;;;5130118;28;19923;-76
2023/10/02 00:30:07;;;;;;;7.22;2.70;;;;;;;;;;5129971;28;20047;-77
2023/10/02 00:32:35;;;;;;;;;;;;;;;;;;5130611;28;20043;-75
2023/10/02 00:35:03;;;;;;;6.50;2.67;;;;;;;;;;5129744;27;19941;-77
2023/10/02 00:37:51;;;;;;;7.75;2.40;;;;;;;;;;5130182;28;20078;-77
2023/10/02 00:40:22;;;;;;;5.88;2.50;;;;;;;;;;5129827;28;20438;-78
2023/10/02 00:42:55;;;;;;;5.65;2.50;;;;;;;;;;5130595;28;20054;-76
2023/10/02 00:45:24;;;;;;;8.00;2.60;;;;;;;;;;5130212;28;20130;-77
2023/10/02 00:47:53;;;;;;;5.95;2.47;;;;;;;;;;5130281;28;20047;-78
2023/10/02 00:50:22;;;;;;;7.40;2.40;;;;;;;;;;5129586;28;20058;-75
2023/10/02 00:53:00;;;;;;;7.85;2.60;;;;;;;;;;5130021;28;20399;-78
2023/10/02 00:55:32;;;;;;;6.80;2.42;;;;;;;;;;5130189;28;20043;-77
2023/10/02 00:58:05;;;;;;;7.03;2.58;;;;;;;;;;5131934;27;20043;-73
2023/10/02 01:00:36;;;;;;;7.03;2.75;;;;;;;;;;5115650;27;20035;-76
2023/10/02 01:03:08;;;;;;;7.65;2.42;;;;;;;;;;5134049;27;20043;-77
2023/10/02 01:05:50;;;;;;;7.40;2.35;;;;;;;;;;5133733;27;20395;-76
2023/10/02 01:08:24;;;;;;;6.65;2.58;;;;;;;;;;5133512;27;20558;-76
2023/10/02 01:10:59;;;;;;;7.00;2.90;;;;;;;;;;5134058;27;20099;-77
2023/10/02 01:13:34;;;;;;;7.10;2.70;;;;;;;;;;5133890;27;20499;-76
2023/10/02 01:16:07;;;;;;;7.25;2.75;;;;;;;;;;5133503;27;20062;-77
2023/10/02 01:18:38;;;;;;;6.10;2.60;;;;;;;;;;5133968;27;20051;-77
2023/10/02 01:21:14;;;;;;;6.22;2.78;;;;;;;;;;5133689;27;20070;-77
2023/10/02 01:24:07;;;;;;;5.93;2.50;;;;;;;;;;5133431;27;20079;-75
2023/10/02 01:26:42;;;;;;;7.65;2.58;;;;;;;;;;5133346;27;20486;-76
2023/10/02 01:29:11;;;;;;;6.30;2.70;;;;;;;;;;5133439;27;20051;-72
2023/10/02 01:31:42;;;;;;;7.47;2.70;;;;;;;;;;5133453;27;20441;-73
2023/10/02 01:34:13;;;;;;;7.88;2.65;;;;;;;;;;5133985;27;20039;-77
2023/10/02 01:36:41;;;;;;;;;;;;;;;;;;5134109;27;20045;-77
2023/10/02 01:39:13;;;;;;;7.75;2.55;;;;;;;;;;5133268;27;20002;-78
2023/10/02 01:41:41;;;;;;;6.82;2.80;;;;;;;;;;5133236;27;20161;-78
2023/10/02 01:44:11;;;;;;;5.20;2.38;;;;;;;;;;5133354;27;20051;-77
2023/10/02 01:46:49;;;;;;;;;;;;;;;;;;5133839;27;20047;-76
2023/10/02 01:49:26;;;;;;;4.95;2.08;;;;;;;;;;5132981;27;20371;-75
2023/10/02 01:51:58;;;;;;;6.70;2.17;;;;;;;;;;5133051;27;20045;-77
2023/10/02 01:54:31;;;;;;;5.18;2.33;;;;;;;;;;5132923;27;20094;-76
2023/10/02 01:56:59;;;;;;;6.43;2.42;;;;;;;;;;5132838;27;20043;-76
2023/10/02 01:59:28;;;;;;;7.32;2.50;;;;;;;;;;5114411;27;20096;-74
2023/10/02 02:01:57;;;;;;;7.50;2.70;;;;;;;;;;5132918;27;20085;-74
2023/10/02 02:04:29;;;;;;;7.05;2.70;;;;;;;;;;5133048;27;20418;-77
2023/10/02 02:06:58;;;;;;;5.25;2.28;;;;;;;;;;5132634;27;20043;-75
2023/10/02 02:09:33;;;;;;;6.93;2.50;;;;;;;;;;5132037;27;20049;-76
2023/10/02 02:12:08;;;;;;;6.80;2.47;;;;;;;;;;5132804;27;20047;-77
2023/10/02 02:14:41;;;;;;;5.65;2.45;;;;;;;;;;5132756;27;20047;-75
2023/10/02 02:17:10;;;;;;;6.13;2.42;;;;;;;;;;5132416;27;20039;-78
2023/10/02 02:19:47;;;;;;;7.05;2.20;;;;;;;;;;5132366;27;20049;-77
2023/10/02 02:22:26;;;;;;;8.48;2.35;;;;;;;;;;5132687;27;20200;-77
2023/10/02 02:24:55;;;;;;;5.18;2.35;;;;;;;;;;5132577;27;20050;-75
2023/10/02 02:27:21;;;;;;;7.30;2.30;;;;;;;;;;5132252;27;20043;-77
2023/10/02 02:29:50;;;;;;;7.53;2.53;;;;;;;;;;5114151;27;20055;-77
2023/10/02 02:32:19;;;;;;;7.30;2.53;;;;;;;;;;5132008;27;20043;-77
2023/10/02 02:35:00;;;;;;;6.30;2.33;;;;;;;;;;5132501;27;20039;-76
2023/10/02 02:37:28;;;;;;;5.88;2.60;;;;;;;;;;5132204;27;20070;-77
2023/10/02 02:40:21;;;;;;;7.03;2.60;;;;;;;;;;5131855;27;20047;-77
2023/10/02 02:42:42;;;;;;;8.00;2.75;;;;;;;;;;5132098;27;20047;-76
2023/10/02 02:45:24;;;;;;;7.28;2.90;;;;;;;;;;5131890;27;20047;-77
2023/10/02 02:47:54;;;;;;;4.95;2.00;;;;;;;;;;5132034;27;20042;-76
2023/10/02 02:50:32;;;;;;;8.02;2.63;;;;;;;;;;5131634;27;20415;-77
2023/10/02 02:53:21;;;;;;;6.55;2.75;;;;;;;;;;5131790;27;20471;-77
2023/10/02 02:56:17;;;;;;;;;;;;;;;;;;5114412;27;20080;-75
2023/10/02 02:58:45;;;;;;;7.38;2.90;;;;;;;;;;5131851;27;19980;-77
2023/10/02 03:01:16;;;;;;;5.40;2.50;;;;;;;;;;5131486;27;20419;-76
2023/10/02 03:03:44;;;;;;;4.47;2.25;;;;;;;;;;5131791;27;20058;-76
2023/10/02 03:06:16;;;;;;;9.25;2.63;;;;;;;;;;5131766;27;20043;-77
2023/10/02 03:08:44;;;;;;;5.80;2.60;;;;;;;;;;5131703;27;20081;-77
2023/10/02 03:11:11;;;;;;;8.55;2.70;;;;;;;;;;5131204;27;20047;-76
2023/10/02 03:13:40;;;;;;;7.60;2.65;;;;;;;;;;5131295;27;20039;-77
2023/10/02 03:16:12;;;;;;;5.15;2.30;;;;;;;;;;5109327;28;20511;-75
2023/10/02 03:18:43;;;;;;;5.13;2.33;;;;;;;;;;5111045;28;20043;-77
2023/10/02 03:21:23;;;;;;;8.18;2.92;;;;;;;;;;5109902;28;20071;-76
2023/10/02 03:23:54;;;;;;;6.30;2.10;;;;;;;;;;5111040;28;20039;-76
2023/10/02 03:29:05;;;;;;;4.57;2.20;;;;;;;;;;5110926;28;20073;-76
2023/10/02 03:31:49;;;;;;;5.45;2.35;;;;;;;;;;5110381;28;20101;-77
2023/10/02 03:34:28;;;;;;;5.82;2.38;;;;;;;;;;5101979;28;20053;-76
2023/10/02 03:36:59;;;;;;;8.68;2.47;;;;;;;;;;5069807;28;20048;-77
2023/10/02 03:42:21;;;;;;;10.52;2.40;;;;;;;;;;5070032;28;20094;-76
2023/10/02 03:44:50;;;;;;;4.97;2.28;;;;;;;;;;5069863;28;20095;-75
2023/10/02 03:47:18;;;;;;;6.15;2.35;;;;;;;;;;5069498;28;20400;-77
2023/10/02 03:49:45;;;;;;;7.18;2.33;;;;;;;;;;5069783;28;20110;-76
2023/10/02 03:52:14;;;;;;;8.18;2.70;;;;;;;;;;5069805;28;20087;-77
2023/10/02 03:54:44;;;;;;;5.70;2.50;;;;;;;;;;5069848;28;20160;-75
2023/10/02 04:00:12;;;;;;;7.07;2.47;;;;;;;;;;5069902;28;20072;-77
2023/10/02 04:02:43;;;;;;;5.68;2.28;;;;;;;;;;5069391;28;20409;-75
2023/10/02 04:05:11;;;;;;;6.25;2.35;;;;;;;;;;5069805;28;20110;-76
2023/10/02 04:07:37;;;;;;;6.95;2.45;;;;;;;;;;5069549;28;20044;-77
2023/10/02 04:10:07;;;;;;;5.50;2.40;;;;;;;;;;5069332;28;20114;-76
2023/10/02 04:12:50;;;;;;;6.53;2.80;;;;;;;;;;5069932;28;20071;-77
2023/10/02 04:15:17;;;;;;;6.90;2.53;;;;;;;;;;5091279;28;20051;-76
2023/10/02 04:17:49;;;;;;;6.35;2.25;;;;;;;;;;5110295;28;20040;-77
2023/10/02 04:20:27;;;;;;;9.45;2.72;;;;;;;;;;5109881;28;20050;-77
2023/10/02 04:22:56;;;;;;;6.10;2.47;;;;;;;;;;5109843;28;20079;-77
2023/10/02 04:25:25;;;;;;;6.80;2.35;;;;;;;;;;5110198;28;20047;-77
2023/10/02 04:30:20;;;;;;;6.20;2.30;;;;;;;;;;5126200;28;20491;-73
2023/10/02 04:33:22;;;;;;;7.25;2.70;;;;;;;;;;5137395;27;20050;-79
2023/10/02 04:35:44;;;;;;;7.10;2.50;;;;;;;;;;5138861;27;20039;-77
2023/10/02 04:38:14;;;;;;;5.35;2.58;;;;;;;;;;5123866;28;20047;-78
2023/10/02 04:40:51;;;;;;;;;;;;;;;;;;5124155;28;20039;-78
2023/10/02 04:43:25;;;;;;;7.43;2.25;;;;;;;;;;5123869;28;19923;-75
2023/10/02 04:45:53;;;;;;;9.07;2.35;;;;;;;;;;5139915;27;20096;-77
2023/10/02 04:48:26;;;;;;;6.30;2.53;;;;;;;;;;5144344;27;20049;-76
2023/10/02 04:50:56;;;;;;;4.80;2.30;;;;;;;;;;5141449;27;20514;-76
2023/10/02 04:53:24;;;;;;;7.63;2.60;;;;;;;;;;5141677;27;20050;-79
2023/10/02 04:56:07;;;;;;;5.70;2.20;;;;;;;;;;5142738;27;20043;-78
2023/10/02 04:58:39;;;;;;;6.57;2.75;;;;;;;;;;5142869;27;20082;-79
2023/10/02 05:03:37;;;;;;;8.18;2.70;;;;;;;;;;5124234;28;20328;-77
2023/10/02 05:06:06;;;;;;;7.95;2.97;;;;;;;;;;5123288;28;20048;-78
2023/10/02 05:11:07;;;;;;;10.38;2.72;;;;;;;;;;5119563;28;20415;-77
2023/10/02 05:16:27;;;;;;;6.78;2.97;;;;;;;;;;5122236;28;20262;-78
2023/10/02 05:18:54;;;;;;;6.10;2.60;;;;;;;;;;5123929;28;20376;-78
2023/10/02 05:21:35;;;;;;;7.13;2.88;;;;;;;;;;5124450;28;20111;-77
2023/10/02 05:24:04;;;;;;;6.45;2.55;;;;;;;;;;5119042;28;20441;-75
2023/10/02 05:26:39;;;;;;;7.35;2.47;;;;;;;;;;5112919;28;20055;-77
2023/10/02 05:29:08;;;;;;;8.70;3.38;;;;;;;;;;5111816;28;20046;-76
2023/10/02 05:31:40;;;;;;;6.32;2.78;;;;;;;;;;5114041;28;20043;-73
2023/10/02 05:34:21;;;;;;;5.82;2.92;;;;;;;;;;5112492;28;20040;-76
2023/10/02 05:39:39;;;;;;;6.53;3.10;;;;;;;;;;5112692;28;20133;-77
2023/10/02 05:42:15;;;;;;;5.82;2.95;;;;;;;;;;5113008;28;20051;-77
2023/10/02 05:44:47;;;;;;;7.63;3.20;;;;;;;;;;5112047;28;20050;-74
2023/10/02 05:47:17;;;;;;;5.53;2.90;;;;;;;;;;5112906;28;20071;-75
2023/10/02 05:49:47;;;;;;;5.55;3.15;;;;;;;;;;5112700;28;20043;-77
2023/10/02 05:52:19;;;;;;;9.43;3.13;;;;;;;;;;5112575;28;20047;-75
2023/10/02 05:54:53;;;;;;;6.10;3.28;;;;;;;;;;5112643;28;20040;-73
2023/10/02 05:57:22;;;;;;;10.48;3.88;;;;;;;;;;5112447;28;20419;-77
2023/10/02 05:59:54;;;;;;;5.82;3.08;;;;;;;;;;5112312;28;20052;-74
2023/10/02 06:02:22;;;;;;;6.28;3.50;;;;;;;;;;5112189;28;20049;-76
2023/10/02 06:04:52;;;;;;;7.25;3.80;;;;;;;;;;5112126;28;20679;-76
2023/10/02 06:10:09;;;;;;;7.30;3.65;;;;;;;;;;5112104;28;20189;-75
2023/10/02 06:12:42;;;;;;;7.13;3.38;;;;;;;;;;5112074;28;20123;-75
2023/10/02 06:15:43;;;;;;;7.68;3.92;;;;;;;;;;5111892;28;20055;-74
2023/10/02 06:17:58;;;;;;;8.48;3.72;;;;;;;;;;5111997;28;20054;-77
2023/10/02 06:20:25;;;;;;;8.63;4.22;;;;;;;;;;5112010;28;20407;-75
2023/10/02 06:23:05;;;;;;;7.25;3.60;;;;;;;;;;5111776;28;20039;-77
2023/10/02 06:25:32;;;;;;;7.18;3.78;;;;;;;;;;5111768;28;20040;-76
2023/10/02 06:28:19;;;;;;;8.10;4.13;;;;;;;;;;5111988;28;20048;-76
2023/10/02 06:30:48;;;;;;;10.50;3.88;;;;;;;;;;5111955;28;20048;-77
2023/10/02 06:33:17;;;;;;;7.43;3.63;;;;;;;;;;5111687;28;20039;-75
2023/10/02 06:35:56;;;;;;;7.13;3.97;;;;;;;;;;5112159;28;20067;-77
2023/10/02 06:38:23;;;;;;;7.25;3.30;;;;;;;;;;5111387;28;20052;-76
2023/10/02 06:40:56;;;;;;;7.80;3.53;;;;;;;;;;5111951;28;20242;-76
2023/10/02 06:43:31;;;;;;;5.40;3.58;;;;;;;;;;5111150;28;20058;-76
2023/10/02 06:46:09;;;;;;;8.88;3.80;;;;;;;;;;5111732;28;20055;-77
2023/10/02 06:48:43;;;;;;;7.80;3.70;;;;;;;;;;5111448;28;20054;-76
2023/10/02 06:51:16;;;;;;;8.57;3.42;;;;;;;;;;5111476;28;20047;-77
2023/10/02 06:53:43;;;;;;;11.52;3.50;;;;;;;;;;5111147;28;20534;-75
2023/10/02 06:56:11;;;;;;;7.93;3.55;;;;;;;;;;5110163;28;20082;-76
2023/10/02 06:58:49;;;;;;;7.50;3.80;;;;;;;;;;5111348;28;20073;-74
2023/10/02 07:01:19;;;;;;;7.63;3.33;;;;;;;;;;5111439;28;20066;-76
2023/10/02 07:03:51;;;;;;;4.70;3.45;;;;;;;;;;5111113;28;20172;-75
2023/10/02 07:06:20;;;;;;;7.40;3.78;;;;;;;;;;5111063;28;20043;-73
2023/10/02 07:08:48;;;;;;;6.07;3.20;;;;;;;;;;5117062;28;20048;-74
2023/10/02 07:11:18;;;;;;;7.72;3.63;;;;;;;;;;5122395;28;20058;-76
2023/10/02 07:13:55;;;;;;;9.23;3.85;;;;;;;;;;5117576;28;20055;-76
2023/10/02 07:16:23;;;;;;;6.57;3.13;;;;;;;;;;5121093;28;20043;-78
2023/10/02 07:18:53;;;;;;;7.25;3.60;;;;;;;;;;5122356;28;20044;-78
2023/10/02 07:21:21;;;;;;;6.57;3.38;;;;;;;;;;5114949;28;20115;-77
2023/10/02 07:23:49;;;;;;;7.82;3.47;;;;;;;;;;5110365;28;20587;-71
2023/10/02 07:26:19;;;;;;;6.05;3.33;;;;;;;;;;5110746;28;20043;-76
2023/10/02 07:28:50;;;;;;;7.45;3.55;;;;;;;;;;5115359;28;20118;-75
2023/10/02 07:31:19;;;;;;;6.88;3.50;;;;;;;;;;5103837;28;20339;-77
2023/10/02 07:33:46;;;;;;;8.68;3.50;;;;;;;;;;5120963;28;20047;-75
2023/10/02 07:36:16;;;;;;;6.25;2.90;;;;;;;;;;5121607;28;20051;-75
2023/10/02 07:38:46;;;;;;;;;;;;;;;;;;5122547;28;20043;-77
2023/10/02 07:41:23;;;;;;;8.20;3.42;;;;;;;;;;5121883;28;19916;-76
2023/10/02 07:43:53;;;;;;;9.00;3.42;;;;;;;;;;5121551;28;20414;-74
2023/10/02 07:46:21;;;;;;;9.05;3.22;;;;;;;;;;5121885;28;20107;-70
2023/10/02 07:48:58;;;;;;;7.03;3.47;;;;;;;;;;5121372;28;20077;-69
2023/10/02 07:51:38;;;;;;;8.25;3.70;;;;;;;;;;5120519;28;20058;-70
2023/10/02 07:54:12;;;;;;;7.20;3.50;;;;;;;;;;5119804;28;20225;-76
2023/10/02 07:56:40;;;;;;;7.93;3.13;;;;;;;;;;5117420;27;20509;-74
2023/10/02 07:59:07;;;;;;;8.23;3.00;;;;;;;;;;5124645;27;20415;-78
2023/10/02 08:01:36;;;;;;;6.35;3.15;;;;;;;;;;5124581;27;20054;-75
2023/10/02 08:04:03;;;;;;;7.00;3.85;;;;;;;;;;5132680;27;20047;-78
2023/10/02 08:06:33;;;;;;;6.55;3.13;;;;;;;;;;5137211;27;20055;-77
2023/10/02 08:09:35;;;;;;;7.72;3.55;;;;;;;;;;5139701;27;20051;-78
2023/10/02 08:12:04;;;;;;;6.38;3.38;;;;;;;;;;5118103;28;20254;-76
2023/10/02 08:14:46;;;;;;;5.85;3.03;;;;;;;;;;5134050;28;20247;-76
2023/10/02 08:17:27;;;;;;;8.40;2.85;;;;;;;;;;5133263;27;20047;-77
2023/10/02 08:19:56;;;;;;;5.93;3.03;;;;;;;;;;5117340;28;20071;-78
2023/10/02 08:22:26;;;;;;;5.65;3.17;;;;;;;;;;5120068;28;20055;-78
2023/10/02 08:24:56;;;;;;;5.45;3.15;;;;;;;;;;5119762;28;20509;-78
2023/10/02 08:27:22;;;;;;;8.55;3.40;;;;;;;;;;5118659;28;20076;-78
2023/10/02 08:29:49;;;;;;;5.47;2.97;;;;;;;;;;5123774;28;20046;-77
2023/10/02 08:32:28;;;;;;;6.35;3.05;;;;;;;;;;5139676;28;20118;-78
2023/10/02 08:34:57;;;;;;;7.23;3.57;;;;;;;;;;5133088;28;20491;-76
2023/10/02 08:37:25;;;;;;;7.15;2.97;;;;;;;;;;5116782;28;20040;-78
2023/10/02 08:39:52;;;;;;;7.78;3.22;;;;;;;;;;5120683;28;20069;-78
2023/10/02 08:42:24;;;;;;;9.30;3.60;;;;;;;;;;5119601;28;20311;-78
2023/10/02 08:44:58;;;;;;;8.13;3.28;;;;;;;;;;5118415;28;20053;-76
2023/10/02 08:47:25;;;;;;;5.30;2.95;;;;;;;;;;5117114;28;20071;-78
2023/10/02 08:50:05;;;;;;;8.32;3.15;;;;;;;;;;5120455;28;20266;-79
2023/10/02 08:52:38;;;;;;;7.68;2.80;;;;;;;;;;5121337;28;20093;-74
2023/10/02 08:55:40;;;;;;;5.20;2.67;;;;;;;;;;5121010;28;20043;-73
2023/10/02 08:58:17;;;;;;;5.43;2.83;;;;;;;;;;5121111;28;20047;-77
2023/10/02 09:01:17;;;;;;;5.97;2.80;;;;;;;;;;5130177;28;20078;-78
2023/10/02 09:04:21;;;;;;;6.03;2.85;;;;;;;;;;5133775;28;20114;-78
2023/10/02 09:06:41;;;;;;;6.43;3.08;;;;;;;;;;5136289;28;20096;-73
2023/10/02 09:11:42;;;;;;;6.47;3.05;;;;;;;;;;5139956;28;20047;-77
2023/10/02 09:17:19;;;;;;;9.00;3.20;;;;;;;;;;5123707;28;20414;-78
2023/10/02 09:20:03;;;;;;;5.90;3.03;;;;;;;;;;5129229;27;20077;-77
2023/10/02 09:22:41;;;;;;;6.88;3.05;;;;;;;;;;5141035;27;20077;-78
2023/10/02 09:25:15;;;;;;;5.53;2.67;;;;;;;;;;5139176;27;20100;-76
2023/10/02 09:28:04;;;;;;;5.47;2.88;;;;;;;;;;5139704;27;20047;-77
2023/10/02 09:33:08;;;;;;;5.78;2.85;;;;;;;;;;5133692;27;20077;-77
2023/10/02 09:35:43;;;;;;;5.17;2.90;;;;;;;;;;5122756;28;20089;-77
2023/10/02 09:38:32;;;;;;;6.82;3.00;;;;;;;;;;5123177;28;20274;-77
2023/10/02 09:41:15;;;;;;;7.43;2.80;;;;;;;;;;5123384;28;20065;-77
2023/10/02 09:43:42;;;;;;;8.27;2.83;;;;;;;;;;5123137;28;20244;-78
2023/10/02 09:46:16;;;;;;;5.80;2.97;;;;;;;;;;5123277;28;20328;-74
2023/10/02 09:49:09;;;;;;;6.60;2.78;;;;;;;;;;5123354;28;20054;-76
2023/10/02 09:52:15;;;;;;;5.60;2.70;;;;;;;;;;5121955;28;20055;-79
2023/10/02 09:54:50;;;;;;;5.10;2.83;;;;;;;;;;5120368;28;20063;-78
2023/10/02 09:57:25;;;;;;;8.05;3.00;;;;;;;;;;5122962;28;20075;-77
2023/10/02 09:59:54;;;;;;;6.25;2.60;;;;;;;;;;5133190;27;20071;-78
2023/10/02 10:10:48;;;;;;;6.28;3.03;;;;;;;;;;5116152;27;20448;-79
2023/10/02 10:13:37;;;;;;;7.03;2.67;;;;;;;;;;5142889;27;20038;-76
2023/10/02 10:16:18;;;;;;;5.45;2.67;;;;;;;;;;5142719;27;20078;-78
2023/10/02 10:19:26;;;;;;;5.93;2.75;;;;;;;;;;5133157;27;20130;-76
2023/10/02 10:22:04;;;;;;;6.25;2.58;;;;;;;;;;5124686;27;20044;-78
2023/10/02 10:24:56;;;;;;;8.82;3.05;;;;;;;;;;5121743;28;20105;-72
2023/10/02 10:27:41;;;;;;;6.20;2.92;;;;;;;;;;5122105;27;20051;-79
2023/10/02 10:30:33;;;;;;;8.95;3.03;;;;;;;;;;5122302;28;20044;-78
2023/10/02 10:35:41;;;;;;;6.95;3.00;;;;;;;;;;5137605;27;20077;-77
2023/10/02 10:38:26;;;;;;;7.30;3.13;;;;;;;;;;5142550;27;20125;-76
2023/10/02 10:41:09;;;;;;;6.60;2.95;;;;;;;;;;5142567;27;20331;-79
2023/10/02 10:46:28;;;;;;;5.90;2.80;;;;;;;;;;5143073;27;20081;-79
2023/10/02 10:48:59;;;;;;;10.73;3.20;;;;;;;;;;5136387;27;20062;-79
2023/10/02 10:51:28;;;;;;;5.60;3.22;;;;;;;;;;5141600;27;20365;-84
2023/10/02 10:54:25;;;;;;;5.70;2.70;;;;;;;;;;5140781;27;20054;-79
2023/10/02 10:57:27;;;;;;;8.00;2.95;;;;;;;;;;5132492;27;20046;-77
2023/10/02 11:00:24;;;;;;;7.53;3.22;;;;;;;;;;5116202;27;20042;-75
2023/10/02 11:03:01;;;;;;;8.80;2.80;;;;;;;;;;5136784;27;20054;-79
2023/10/02 11:05:33;;;;;;;9.02;3.30;;;;;;;;;;5137405;27;20051;-80
2023/10/02 11:08:28;;;;;;;6.45;2.95;;;;;;;;;;5140168;27;20047;-79
2023/10/02 11:11:19;;;;;;;9.43;3.08;;;;;;;;;;5141497;27;20050;-78
2023/10/02 11:13:51;;;;;;;5.55;3.00;;;;;;;;;;5141921;27;20240;-79
2023/10/02 11:16:30;;;;;;;6.35;3.13;;;;;;;;;;5141679;27;20126;-76
2023/10/02 11:19:21;;;;;;;8.00;3.35;;;;;;;;;;5141822;27;20212;-78
2023/10/02 11:22:15;;;;;;;9.00;3.42;;;;;;;;;;5136468;27;20054;-80
2023/10/02 11:25:18;;;;;;;7.85;3.05;;;;;;;;;;5141701;27;20323;-77
2023/10/02 11:27:57;;;;;;;10.45;3.15;;;;;;;;;;5141364;27;20043;-78
2023/10/02 11:30:33;;;;;;;7.68;3.13;;;;;;;;;;5141615;27;20039;-77
2023/10/02 11:33:04;;;;;;;6.72;2.60;;;;;;;;;;5130690;27;20074;-77
2023/10/02 11:35:39;;;;;;;6.32;3.10;;;;;;;;;;5129714;27;20044;-75
2023/10/02 11:38:07;;;;;;;7.45;3.33;;;;;;;;;;5120764;27;20086;-76
2023/10/02 11:40:35;;;;;;;8.68;3.33;;;;;;;;;;5114192;27;20039;-77
2023/10/02 11:43:02;;;;;;;6.70;2.92;;;;;;;;;;5128848;27;20446;-77
2023/10/02 11:45:32;;;;;;;5.85;2.88;;;;;;;;;;5130303;27;20151;-74
2023/10/02 11:47:59;;;;;;;9.38;3.10;;;;;;;;;;5130419;27;20039;-77
2023/10/02 11:50:26;;;;;;;6.25;3.05;;;;;;;;;;5110822;27;20043;-77
2023/10/02 11:52:55;;;;;;;6.65;3.13;;;;;;;;;;5129246;27;20051;-76
2023/10/02 11:55:23;;;;;;;6.88;2.90;;;;;;;;;;5127975;27;20130;-74
2023/10/02 11:57:53;;;;;;;7.00;2.88;;;;;;;;;;5119532;27;20134;-73
2023/10/02 12:00:24;;;;;;;7.40;2.90;;;;;;;;;;5126302;27;20257;-73
2023/10/02 12:02:51;;;;;;;7.43;3.28;;;;;;;;;;5115772;28;20052;-75
2023/10/02 12:05:18;;;;;;;8.50;3.25;;;;;;;;;;5128556;27;20058;-77
2023/10/02 12:07:46;;;;;;;7.35;2.95;;;;;;;;;;5133234;27;20059;-75
2023/10/02 12:10:15;;;;;;;6.50;3.22;;;;;;;;;;5133760;27;20039;-74
2023/10/02 12:12:45;;;;;;;5.95;2.90;;;;;;;;;;5134017;27;20110;-75
2023/10/02 12:15:14;;;;;;;7.93;3.00;;;;;;;;;;5114824;28;20567;-75
2023/10/02 12:17:41;;;;;;;6.20;2.75;;;;;;;;;;5131180;27;20502;-72
2023/10/02 12:20:10;;;;;;;8.15;3.42;;;;;;;;;;5131942;27;20054;-76
2023/10/02 12:22:38;;;;;;;5.15;2.97;;;;;;;;;;5136559;27;20333;-76
2023/10/02 12:25:09;;;;;;;6.13;3.13;;;;;;;;;;5137745;28;20053;-76
2023/10/02 12:27:39;;;;;;;5.70;2.83;;;;;;;;;;5136706;28;20047;-76
2023/10/02 12:30:11;;;;;;;8.10;3.08;;;;;;;;;;5131236;28;20051;-77
2023/10/02 12:32:39;;;;;;;7.85;3.13;;;;;;;;;;5133673;28;20054;-77
2023/10/02 12:35:06;;;;;;;7.78;3.30;;;;;;;;;;5140634;28;20043;-78
2023/10/02 12:37:33;;;;;;;7.05;2.60;;;;;;;;;;5140247;28;20039;-77
2023/10/02 12:40:00;;;;;;;10.00;3.55;;;;;;;;;;5115868;28;20055;-77
2023/10/02 12:42:29;;;;;;;7.28;3.22;;;;;;;;;;5126726;28;20509;-78
2023/10/02 12:44:56;;;;;;;6.68;3.05;;;;;;;;;;5117012;28;20632;-74
2023/10/02 12:47:23;;;;;;;7.20;3.22;;;;;;;;;;5110165;28;20077;-69
2023/10/02 12:49:54;;;;;;;7.78;3.45;;;;;;;;;;5112245;28;20517;-78
2023/10/02 12:52:23;;;;;;;6.47;3.13;;;;;;;;;;5115271;28;20518;-69
2023/10/02 12:54:49;;;;;;;5.82;3.33;;;;;;;;;;5118914;28;20047;-68
2023/10/02 12:57:16;;;;;;;6.78;3.08;;;;;;;;;;5119845;28;20103;-74
2023/10/02 12:59:43;;;;;;;8.93;3.20;;;;;;;;;;5124718;28;20110;-69
2023/10/02 13:02:10;;;;;;;7.63;3.30;;;;;;;;;;5128742;27;20047;-85
2023/10/02 13:04:37;;;;;;;7.32;3.40;;;;;;;;;;5132687;27;20171;-83
2023/10/02 13:07:05;;;;;;;6.50;3.40;;;;;;;;;;5113854;28;20039;-81
2023/10/02 13:09:32;;;;;;;8.10;3.45;;;;;;;;;;5123155;27;20051;-84
2023/10/02 13:12:00;;;;;;;9.52;3.25;;;;;;;;;;5134965;27;20039;-83
2023/10/02 13:14:27;;;;;;;5.88;3.40;;;;;;;;;;5131798;27;20139;-70
2023/10/02 13:16:54;;;;;;;6.13;2.90;;;;;;;;;;5132827;27;20035;-85
2023/10/02 13:19:21;;;;;;;6.68;3.22;;;;;;;;;;5121655;27;20043;-88
2023/10/02 13:21:52;;;;;;;7.00;2.88;;;;;;;;;;5111594;28;20051;-82
2023/10/02 13:24:23;;;;;;;8.20;3.42;;;;;;;;;;5111277;28;20058;-84
2023/10/02 13:26:50;;;;;;;6.35;3.10;;;;;;;;;;5111820;28;20050;-86
2023/10/02 13:29:20;;;;;;;5.53;3.28;;;;;;;;;;5116850;28;20039;-83
2023/10/02 13:31:47;;;;;;;6.00;3.08;;;;;;;;;;5121818;28;20075;-80
2023/10/02 13:34:14;;;;;;;6.82;3.05;;;;;;;;;;5113537;28;20453;-84
2023/10/02 13:36:41;;;;;;;7.10;2.97;;;;;;;;;;5112388;28;20506;-82
2023/10/02 13:39:13;;;;;;;8.35;3.17;;;;;;;;;;5112444;28;20097;-78
2023/10/02 13:41:40;;;;;;;7.35;3.00;;;;;;;;;;5112624;28;20043;-83
2023/10/02 13:44:07;;;;;;;7.25;3.25;;;;;;;;;;5112302;28;20647;-83
2023/10/02 13:46:41;;;;;;;8.27;3.10;;;;;;;;;;5113016;28;20124;-83
2023/10/02 13:49:10;;;;;;;5.95;3.13;;;;;;;;;;5113554;28;20752;-84
2023/10/02 13:51:37;;;;;;;7.35;3.30;;;;;;;;;;5112036;28;20594;-81
2023/10/02 13:54:04;;;;;;;11.25;3.63;;;;;;;;;;5112061;28;20628;-85
2023/10/02 13:56:32;;;;;;;10.02;3.33;;;;;;;;;;5112669;28;20047;-83
2023/10/02 13:59:01;;;;;;;7.23;3.73;;;;;;;;;;5112519;28;20438;-84
2023/10/02 14:01:32;;;;;;;7.07;3.38;;;;;;;;;;5112519;28;20774;-84
2023/10/02 14:04:01;;;;;;;6.78;3.42;;;;;;;;;;5111813;28;20112;-83
2023/10/02 14:06:31;;;;;;;6.88;2.95;;;;;;;;;;5112580;28;20067;-85
2023/10/02 14:08:58;;;;;;;6.55;3.40;;;;;;;;;;5112158;28;20048;-85
2023/10/02 14:11:26;;;;;;;7.68;3.65;;;;;;;;;;5112400;28;20077;-84
2023/10/02 14:13:56;;;;;;;8.25;3.58;;;;;;;;;;5112593;28;20423;-84
2023/10/02 14:16:25;;;;;;;7.85;3.08;;;;;;;;;;5111748;28;20600;-84
2023/10/02 14:18:53;;;;;;;5.55;3.08;;;;;;;;;;5094134;28;20047;-81
2023/10/02 14:21:22;;;;;;;11.63;3.17;;;;;;;;;;5112497;28;20051;-85
2023/10/02 14:23:52;;;;;;;7.88;3.70;;;;;;;;;;5114063;28;20108;-84
2023/10/02 14:26:23;;;;;;;6.03;3.35;;;;;;;;;;5111680;28;20051;-85
2023/10/02 14:28:51;;;;;;;6.50;3.22;;;;;;;;;;5111868;28;20124;-85
2023/10/02 14:31:32;;;;;;;6.78;3.17;;;;;;;;;;5111999;28;20043;-82
2023/10/02 14:34:00;;;;;;;6.78;3.03;;;;;;;;;;5111501;28;20502;-85
2023/10/02 14:36:28;;;;;;;7.38;3.17;;;;;;;;;;5111686;28;20125;-84
2023/10/02 14:38:57;;;;;;;7.35;3.60;;;;;;;;;;5111561;28;20043;-85
2023/10/02 14:41:27;;;;;;;7.35;3.10;;;;;;;;;;5111857;28;20047;-82
2023/10/02 14:43:54;;;;;;;6.43;3.60;;;;;;;;;;5113381;28;20052;-83
2023/10/02 14:46:21;;;;;;;6.50;3.22;;;;;;;;;;5111532;28;20309;-84
2023/10/02 14:48:49;;;;;;;5.13;3.20;;;;;;;;;;5111473;28;20044;-80
2023/10/02 14:51:17;;;;;;;7.97;3.22;;;;;;;;;;5111233;28;20090;-83
2023/10/02 14:53:45;;;;;;;9.07;3.70;;;;;;;;;;5113689;28;20066;-79
2023/10/02 14:56:12;;;;;;;5.90;2.95;;;;;;;;;;5115314;28;20047;-84
2023/10/02 14:58:46;;;;;;;8.77;3.60;;;;;;;;;;5113855;28;20227;-83
2023/10/02 15:01:16;;;;;;;9.45;3.47;;;;;;;;;;5115585;28;20112;-86
2023/10/02 15:03:45;;;;;;;7.30;3.53;;;;;;;;;;5113541;28;20482;-82
2023/10/02 15:06:13;;;;;;;8.02;3.03;;;;;;;;;;5122699;28;20327;-87
2023/10/02 15:08:40;;;;;;;8.40;3.60;;;;;;;;;;5123062;28;20069;-89
2023/10/02 15:11:13;;;;;;;6.72;3.33;;;;;;;;;;5117884;28;20039;-82
2023/10/02 15:13:42;;;;;;;7.15;3.35;;;;;;;;;;5117484;28;20132;-84
2023/10/02 15:16:12;;;;;;;8.88;3.72;;;;;;;;;;5113685;28;20513;-82
2023/10/02 15:18:39;;;;;;;7.18;3.40;;;;;;;;;;5123021;27;20106;-81
2023/10/02 15:21:07;;;;;;;7.85;3.40;;;;;;;;;;5130823;27;20035;-80
2023/10/02 15:23:34;;;;;;;5.88;3.28;;;;;;;;;;5133551;27;20050;-82
2023/10/02 15:26:01;;;;;;;10.48;3.47;;;;;;;;;;5120783;28;20044;-73
2023/10/02 15:28:27;;;;;;;7.68;3.50;;;;;;;;;;5132695;27;20102;-83
2023/10/02 15:30:54;;;;;;;7.90;3.28;;;;;;;;;;5130873;27;20040;-80
2023/10/02 15:33:21;;;;;;;7.40;3.97;;;;;;;;;;5129432;27;20357;-80
2023/10/02 15:35:49;;;;;;;8.27;3.60;;;;;;;;;;5141536;27;20043;-82
2023/10/02 15:38:15;;;;;;;8.68;3.78;;;;;;;;;;5128505;27;20043;-80
2023/10/02 15:40:43;;;;;;;6.97;3.45;;;;;;;;;;5121611;27;20043;-82
2023/10/02 15:43:10;;;;;;;7.40;3.35;;;;;;;;;;5130075;27;20045;-80
2023/10/02 15:45:36;;;;;;;7.15;3.22;;;;;;;;;;5120021;27;20200;-83
2023/10/02 15:48:03;;;;;;;8.63;3.65;;;;;;;;;;5142413;27;20043;-82
2023/10/02 15:50:33;;;;;;;9.57;3.85;;;;;;;;;;5128390;27;20352;-81
2023/10/02 15:53:01;;;;;;;7.90;3.47;;;;;;;;;;5118230;28;20290;-81
2023/10/02 15:55:29;;;;;;;7.00;3.42;;;;;;;;;;5128026;27;20091;-83
2023/10/02 15:57:56;;;;;;;7.43;3.30;;;;;;;;;;5118003;27;20100;-81
2023/10/02 16:00:24;;;;;;;6.72;3.22;;;;;;;;;;5118468;28;20051;-81
2023/10/02 16:02:56;;;;;;;10.32;3.92;;;;;;;;;;5117414;28;20085;-81
2023/10/02 16:05:24;;;;;;;7.70;3.42;;;;;;;;;;5119427;28;20043;-79
2023/10/02 16:07:52;;;;;;;9.48;3.88;;;;;;;;;;5117163;28;20044;-81
2023/10/02 16:10:24;;;;;;;9.05;4.05;;;;;;;;;;5119996;28;20052;-81